Time;durP1;ratioP1;P1;durP2;ratioP2;P2;SDS_P1;SDS_P2;PMS_P1;PMS_P2;Temp;Humidity;BMP_temperature;BMP_pressure;BME280_temperature;BME280_humidity;BME280_pressure;Samples;Min_cycle;Max_cycle;Signal;HPM_P1;HPM_P2
2022/06/17 00:00:12;;;;;;;17.67;15.68;;;16.30;99.90;;;;;;5110122;28;20400;-76
2022/06/17 00:02:38;;;;;;;17.73;16.02;;;16.40;99.90;;;;;;5022368;28;20486;-76
2022/06/17 00:05:04;;;;;;;18.37;16.57;;;16.30;99.90;;;;;;5109586;28;20404;-76
2022/06/17 00:07:30;;;;;;;17.30;15.48;;;16.30;99.90;;;;;;5105483;28;20404;-76
2022/06/17 00:09:55;;;;;;;18.53;16.57;;;16.30;99.90;;;;;;5106775;28;20396;-76
2022/06/17 00:12:21;;;;;;;18.10;16.20;;;16.30;99.90;;;;;;5093764;28;20404;-76
2022/06/17 00:17:30;;;;;;;17.63;15.63;;;16.10;99.90;;;;;;5100106;28;20458;-76
2022/06/17 00:19:57;;;;;;;16.93;15.23;;;16.10;99.90;;;;;;5104904;28;20901;-76
2022/06/17 00:22:22;;;;;;;17.60;15.80;;;16.10;99.90;;;;;;5100053;28;20423;-76
2022/06/17 00:24:52;;;;;;;16.75;15.05;;;16.00;99.90;;;;;;5104714;28;20409;-75
2022/06/17 00:27:18;;;;;;;17.77;15.98;;;16.00;99.90;;;;;;5101820;28;20400;-76
2022/06/17 00:29:43;;;;;;;16.98;15.27;;;16.00;99.90;;;;;;5105225;28;20415;-76
2022/06/17 00:32:09;;;;;;;16.80;15.00;;;16.00;99.90;;;;;;5099922;28;20408;-76
2022/06/17 00:34:34;;;;;;;18.48;16.40;;;15.90;99.90;;;;;;5104158;28;20511;-75
2022/06/17 00:37:03;;;;;;;17.37;15.47;;;15.90;99.90;;;;;;5100132;28;20400;-76
2022/06/17 00:39:31;;;;;;;16.52;14.77;;;15.80;99.90;;;;;;5104845;28;20435;-77
2022/06/17 00:42:09;;;;;;;17.25;14.65;;;15.90;99.90;;;;;;5097874;28;20432;-76
2022/06/17 00:45:02;;;;;;;16.48;14.70;;;15.90;99.90;;;;;;5097934;28;20408;-75
2022/06/17 00:47:49;;;;;;;17.00;15.23;;;15.80;99.90;;;;;;5058185;28;20966;-76
2022/06/17 00:50:34;;;;;;;16.27;14.57;;;15.80;99.90;;;;;;4994706;28;20409;-76
2022/06/17 00:53:24;;;;;;;15.88;14.18;;;15.70;99.90;;;;;;5021398;28;20412;-76
2022/06/17 00:56:01;;;;;;;18.67;15.73;;;15.70;99.90;;;;;;5108256;28;20412;-75
2022/06/17 00:58:31;;;;;;;17.40;15.60;;;15.70;99.90;;;;;;5033079;28;20416;-76
2022/06/17 01:01:01;;;;;;;17.75;15.85;;;15.60;99.90;;;;;;5103656;28;20443;-76
2022/06/17 01:03:36;;;;;;;18.48;16.58;;;15.60;99.90;;;;;;5104683;28;20408;-75
2022/06/17 01:06:08;;;;;;;20.05;17.13;;;15.60;99.90;;;;;;5101620;28;20457;-75
2022/06/17 01:11:30;;;;;;;19.27;17.20;;;15.50;99.90;;;;;;5102421;28;20405;-75
2022/06/17 01:13:57;;;;;;;19.38;17.40;;;15.50;99.90;;;;;;5087881;28;20415;-76
2022/06/17 01:16:27;;;;;;;18.77;16.85;;;15.50;99.90;;;;;;5058256;28;20413;-77
2022/06/17 01:18:54;;;;;;;19.63;17.63;;;15.50;99.90;;;;;;5040370;28;20391;-76
2022/06/17 01:21:38;;;;;;;19.40;17.40;;;15.50;99.90;;;;;;5040900;28;20431;-76
2022/06/17 01:24:07;;;;;;;19.65;17.63;;;15.50;99.90;;;;;;5024968;28;20451;-77
2022/06/17 01:26:33;;;;;;;20.10;18.00;;;15.50;99.90;;;;;;5024691;28;20776;-76
2022/06/17 01:28:59;;;;;;;20.08;18.10;;;15.40;99.90;;;;;;5041292;28;20389;-75
2022/06/17 01:31:24;;;;;;;20.40;18.20;;;15.40;99.90;;;;;;5050300;28;20504;-76
2022/06/17 01:33:50;;;;;;;20.25;18.17;;;15.40;99.90;;;;;;5045829;28;20405;-76
2022/06/17 01:36:18;;;;;;;19.63;17.73;;;15.40;99.90;;;;;;5004987;28;20740;-76
2022/06/17 01:38:48;;;;;;;19.40;17.35;;;15.40;99.90;;;;;;5004740;28;20428;-75
2022/06/17 01:41:15;;;;;;;20.13;18.02;;;15.30;99.90;;;;;;5004322;28;20504;-76
2022/06/17 01:43:55;;;;;;;21.50;17.50;;;15.30;99.90;;;;;;5015336;28;20417;-75
2022/06/17 01:46:25;;;;;;;21.05;18.98;;;15.30;99.90;;;;;;5025612;28;20404;-75
2022/06/17 01:49:02;;;;;;;21.42;18.90;;;15.20;99.90;;;;;;5078778;28;20439;-76
2022/06/17 01:51:32;;;;;;;20.80;18.60;;;15.20;99.90;;;;;;5006959;28;20406;-75
2022/06/17 01:54:00;;;;;;;21.17;18.67;;;15.20;99.90;;;;;;5068156;28;20466;-76
2022/06/17 01:56:30;;;;;;;20.85;18.65;;;15.20;99.90;;;;;;5006046;28;20523;-76
2022/06/17 01:59:05;;;;;;;21.85;19.42;;;15.10;99.90;;;;;;5008552;28;20511;-76
2022/06/17 02:01:34;;;;;;;22.07;19.57;;;15.10;99.90;;;;;;5007939;28;20436;-76
2022/06/17 02:04:11;;;;;;;20.90;18.80;;;15.10;99.90;;;;;;5110597;28;20439;-75
2022/06/17 02:06:52;;;;;;;21.85;19.45;;;15.10;99.90;;;;;;5107519;28;20392;-76
2022/06/17 02:09:18;;;;;;;21.63;19.43;;;15.10;99.90;;;;;;5109797;28;20400;-76
2022/06/17 02:11:45;;;;;;;21.58;19.38;;;15.10;99.90;;;;;;5106063;28;20440;-76
2022/06/17 02:14:11;;;;;;;21.40;19.17;;;15.10;99.90;;;;;;5091475;28;20408;-76
2022/06/17 02:16:41;;;;;;;21.83;19.50;;;15.10;99.90;;;;;;5059504;28;20457;-76
2022/06/17 02:19:08;;;;;;;20.30;18.20;;;15.00;99.90;;;;;;5022403;28;20412;-76
2022/06/17 02:21:45;;;;;;;19.92;17.80;;;15.00;99.90;;;;;;5014587;28;20432;-76
2022/06/17 02:24:11;;;;;;;19.67;17.58;;;15.00;99.90;;;;;;5111378;28;20400;-76
2022/06/17 02:26:40;;;;;;;20.58;18.35;;;15.00;99.90;;;;;;5088843;28;20971;-76
2022/06/17 02:29:09;;;;;;;20.35;18.35;;;15.00;99.90;;;;;;5094370;28;20902;-75
2022/06/17 02:31:35;;;;;;;20.13;18.13;;;15.00;99.90;;;;;;5075477;28;20412;-76
2022/06/17 02:34:04;;;;;;;19.83;17.80;;;15.00;99.90;;;;;;5009198;28;20477;-76
2022/06/17 02:36:49;;;;;;;19.77;17.67;;;15.00;99.90;;;;;;5087123;28;20392;-76
2022/06/17 02:39:16;;;;;;;19.52;17.42;;;15.00;99.90;;;;;;5109314;28;20769;-76
2022/06/17 02:41:43;;;;;;;19.52;17.52;;;15.00;99.90;;;;;;5034862;27;20433;-76
2022/06/17 02:44:22;;;;;;;19.40;17.42;;;15.00;99.90;;;;;;5016681;28;20765;-76
2022/06/17 02:46:51;;;;;;;19.23;17.15;;;14.90;99.90;;;;;;5095071;28;20491;-76
2022/06/17 02:49:23;;;;;;;19.38;17.33;;;14.90;99.90;;;;;;5108052;28;20986;-76
2022/06/17 02:51:49;;;;;;;17.95;16.05;;;14.90;99.90;;;;;;5104422;28;20434;-76
2022/06/17 02:54:38;;;;;;;17.65;15.77;;;14.80;99.90;;;;;;5107859;28;20404;-75
2022/06/17 02:57:07;;;;;;;18.02;16.13;;;14.80;99.90;;;;;;5070398;28;20396;-76
2022/06/17 02:59:38;;;;;;;18.85;16.85;;;14.80;99.90;;;;;;5007359;28;20421;-76
2022/06/17 03:02:20;;;;;;;18.30;16.40;;;14.80;99.90;;;;;;5010050;28;20558;-75
2022/06/17 03:04:47;;;;;;;18.30;15.80;;;14.80;99.90;;;;;;5010029;28;20421;-76
2022/06/17 03:07:16;;;;;;;18.53;16.57;;;14.80;99.90;;;;;;5011577;28;20405;-76
2022/06/17 03:09:43;;;;;;;18.23;15.43;;;14.70;99.90;;;;;;5009810;28;20971;-76
2022/06/17 03:12:13;;;;;;;16.50;14.70;;;14.70;99.90;;;;;;5010991;28;20842;-76
2022/06/17 03:14:48;;;;;;;17.02;15.32;;;14.70;99.90;;;;;;5010465;28;20908;-76
2022/06/17 03:17:17;;;;;;;16.52;14.73;;;14.70;99.90;;;;;;5009704;28;20913;-76
2022/06/17 03:19:46;;;;;;;17.17;15.35;;;14.70;99.90;;;;;;5009386;28;20450;-75
2022/06/17 03:22:13;;;;;;;16.00;14.30;;;14.70;99.90;;;;;;4999992;28;20444;-76
2022/06/17 03:24:57;;;;;;;15.73;13.65;;;14.70;99.90;;;;;;5012250;28;20531;-76
2022/06/17 03:27:33;;;;;;;15.90;14.23;;;14.70;99.90;;;;;;5009754;28;20417;-76
2022/06/17 03:30:01;;;;;;;15.25;13.65;;;14.70;99.90;;;;;;5022478;28;20392;-76
2022/06/17 03:32:33;;;;;;;18.23;14.10;;;14.70;99.90;;;;;;5014633;28;20990;-76
2022/06/17 03:34:59;;;;;;;15.75;13.70;;;14.70;99.90;;;;;;5011285;28;20500;-76
2022/06/17 03:37:49;;;;;;;16.20;14.50;;;14.70;99.90;;;;;;5074573;28;21050;-76
2022/06/17 03:40:20;;;;;;;16.48;13.82;;;14.70;99.90;;;;;;5018059;28;20432;-76
2022/06/17 03:43:10;;;;;;;15.20;12.45;;;14.70;99.90;;;;;;5109165;28;20431;-76
2022/06/17 03:45:58;;;;;;;13.23;11.65;;;14.80;99.90;;;;;;5107676;28;20418;-76
2022/06/17 03:48:55;;;;;;;12.63;11.23;;;14.90;99.90;;;;;;5046202;28;20412;-76
2022/06/17 03:51:25;;;;;;;12.43;11.20;;;14.90;99.90;;;;;;5048993;28;20785;-76
2022/06/17 03:53:51;;;;;;;14.38;11.25;;;15.00;99.90;;;;;;5107160;28;20400;-76
2022/06/17 03:56:33;;;;;;;14.55;10.80;;;15.10;99.90;;;;;;5109639;28;20401;-76
2022/06/17 03:59:04;;;;;;;14.80;10.80;;;15.20;99.90;;;;;;5107347;28;20449;-76
2022/06/17 04:01:51;;;;;;;12.23;9.53;;;15.30;99.90;;;;;;5106086;28;20424;-76
2022/06/17 04:04:23;;;;;;;11.68;9.57;;;15.30;99.90;;;;;;5097108;28;20808;-76
2022/06/17 04:06:52;;;;;;;11.40;9.65;;;15.30;99.90;;;;;;5057968;28;20396;-76
2022/06/17 04:09:29;;;;;;;11.35;9.55;;;15.40;99.90;;;;;;5005153;28;20417;-76
2022/06/17 04:12:06;;;;;;;11.85;9.30;;;15.40;99.90;;;;;;5068060;28;20916;-76
2022/06/17 04:14:54;;;;;;;10.15;8.52;;;15.40;99.90;;;;;;5027222;28;20779;-75
2022/06/17 04:17:36;;;;;;;10.87;9.70;;;15.50;99.90;;;;;;5092372;28;20405;-76
2022/06/17 04:20:22;;;;;;;10.43;9.15;;;15.50;99.90;;;;;;5006697;28;20446;-76
2022/06/17 04:22:50;;;;;;;11.65;8.73;;;15.60;99.90;;;;;;5035728;28;20442;-76
2022/06/17 04:25:21;;;;;;;10.73;8.48;;;15.70;99.90;;;;;;5031186;28;20461;-76
2022/06/17 04:27:56;;;;;;;10.15;8.38;;;15.70;99.90;;;;;;5006772;28;20492;-75
2022/06/17 04:30:29;;;;;;;11.20;8.67;;;15.80;99.90;;;;;;5011739;28;20758;-76
2022/06/17 04:33:00;;;;;;;12.25;8.43;;;15.90;99.90;;;;;;5009072;28;20413;-76
2022/06/17 04:35:25;;;;;;;9.95;8.20;;;16.00;99.90;;;;;;4994509;28;20520;-75
2022/06/17 04:37:51;;;;;;;10.50;8.13;;;16.10;99.90;;;;;;5010574;28;20458;-76
2022/06/17 04:40:31;;;;;;;12.20;8.60;;;16.10;99.90;;;;;;5046717;28;20396;-76
2022/06/17 04:42:58;;;;;;;10.48;8.57;;;16.10;99.90;;;;;;5040277;28;20472;-76
2022/06/17 04:45:28;;;;;;;11.17;8.70;;;16.10;99.90;;;;;;4994087;28;20753;-76
2022/06/17 04:47:55;;;;;;;11.10;8.55;;;16.20;99.90;;;;;;5007175;28;20907;-76
2022/06/17 04:50:24;;;;;;;9.55;8.20;;;16.10;99.90;;;;;;5107897;28;20454;-76
2022/06/17 04:52:51;;;;;;;11.30;9.07;;;16.20;99.90;;;;;;5106802;28;20400;-76
2022/06/17 04:55:19;;;;;;;9.77;8.25;;;16.20;99.90;;;;;;5107921;28;20428;-76
2022/06/17 04:57:46;;;;;;;10.93;8.82;;;16.20;99.90;;;;;;5106106;28;20408;-76
2022/06/17 05:00:18;;;;;;;10.05;8.65;;;16.30;99.90;;;;;;5107742;28;20408;-76
2022/06/17 05:02:44;;;;;;;11.35;8.73;;;16.30;99.90;;;;;;5105330;28;20493;-76
2022/06/17 05:05:13;;;;;;;11.00;9.23;;;16.40;99.90;;;;;;5106270;28;20815;-76
2022/06/17 05:07:48;;;;;;;10.70;9.23;;;16.50;99.90;;;;;;5106452;28;20477;-76
2022/06/17 05:10:42;;;;;;;10.77;9.02;;;16.50;99.90;;;;;;5050656;28;20409;-76
2022/06/17 05:13:25;;;;;;;12.23;9.00;;;16.60;99.90;;;;;;5006711;28;20449;-76
2022/06/17 05:15:51;;;;;;;11.75;9.30;;;16.60;99.90;;;;;;5026458;28;20475;-76
2022/06/17 05:18:17;;;;;;;12.93;9.10;;;16.60;99.90;;;;;;5053271;28;20500;-75
2022/06/17 05:20:44;;;;;;;12.43;9.30;;;16.60;99.90;;;;;;5006742;28;21040;-76
2022/06/17 05:23:14;;;;;;;11.30;9.30;;;16.60;99.90;;;;;;5005844;28;20800;-76
2022/06/17 05:25:42;;;;;;;12.48;9.57;;;16.60;99.90;;;;;;5006277;28;20414;-76
2022/06/17 05:28:12;;;;;;;11.30;9.65;;;16.60;99.90;;;;;;5004747;28;20468;-76
2022/06/17 05:30:41;;;;;;;14.48;9.82;;;16.60;99.90;;;;;;5008196;28;20417;-76
2022/06/17 05:33:10;;;;;;;13.00;11.03;;;16.60;99.90;;;;;;5005640;28;20440;-76
2022/06/17 05:35:35;;;;;;;13.68;10.13;;;16.60;99.90;;;;;;5044688;28;20417;-76
2022/06/17 05:38:01;;;;;;;12.70;10.63;;;16.60;99.90;;;;;;5055565;28;20778;-73
2022/06/17 05:40:27;;;;;;;10.83;9.70;;;16.60;99.90;;;;;;5082127;28;20420;-74
2022/06/17 05:42:53;;;;;;;13.07;10.48;;;16.70;99.90;;;;;;5049853;28;20428;-74
2022/06/17 05:45:24;;;;;;;12.33;10.27;;;16.70;99.90;;;;;;5076711;28;20980;-70
2022/06/17 05:47:50;;;;;;;12.57;10.70;;;16.70;99.90;;;;;;5103283;28;20419;-75
2022/06/17 05:50:17;;;;;;;11.35;10.18;;;16.70;99.90;;;;;;5106563;28;20774;-75
2022/06/17 05:53:04;;;;;;;14.07;10.30;;;16.80;99.90;;;;;;5050737;28;20473;-75
2022/06/17 05:55:31;;;;;;;13.32;10.23;;;16.80;99.90;;;;;;5007934;28;20431;-75
2022/06/17 05:58:00;;;;;;;13.07;10.20;;;16.90;99.90;;;;;;5040167;28;20421;-75
2022/06/17 06:00:27;;;;;;;13.02;9.70;;;16.90;99.90;;;;;;5017501;28;20403;-75
2022/06/17 06:02:57;;;;;;;11.55;9.90;;;17.00;99.90;;;;;;5005376;28;20440;-75
2022/06/17 06:05:25;;;;;;;12.38;10.30;;;17.10;99.90;;;;;;5005439;28;20497;-75
2022/06/17 06:07:50;;;;;;;12.38;10.15;;;17.10;99.90;;;;;;5081396;28;20400;-76
2022/06/17 06:10:17;;;;;;;12.65;10.25;;;17.20;99.90;;;;;;5105582;28;20762;-76
2022/06/17 06:12:57;;;;;;;12.70;10.07;;;17.20;99.90;;;;;;5029262;28;20771;-76
2022/06/17 06:15:30;;;;;;;12.02;10.02;;;17.30;99.90;;;;;;5039838;28;20412;-75
2022/06/17 06:17:55;;;;;;;15.43;10.73;;;17.20;99.90;;;;;;5105589;28;20424;-75
2022/06/17 06:20:22;;;;;;;13.90;10.27;;;17.30;99.90;;;;;;5105482;28;20499;-76
2022/06/17 06:22:48;;;;;;;13.82;10.93;;;17.40;99.90;;;;;;5102599;28;20428;-75
2022/06/17 06:25:17;;;;;;;14.55;10.70;;;17.40;99.90;;;;;;5105928;28;20939;-75
2022/06/17 06:27:43;;;;;;;15.02;10.50;;;17.50;99.90;;;;;;5102813;28;20404;-75
2022/06/17 06:30:22;;;;;;;13.07;10.13;;;17.50;99.90;;;;;;5037678;28;20412;-76
2022/06/17 06:32:54;;;;;;;12.55;10.00;;;17.60;99.90;;;;;;5106736;28;20392;-75
2022/06/17 06:35:22;;;;;;;12.10;9.82;;;17.60;99.90;;;;;;5085571;28;20798;-76
2022/06/17 06:37:48;;;;;;;11.75;9.80;;;17.70;99.90;;;;;;5005597;28;20783;-76
2022/06/17 06:40:14;;;;;;;11.60;10.35;;;17.70;99.90;;;;;;5005425;28;20480;-76
2022/06/17 06:42:39;;;;;;;13.40;9.90;;;17.70;99.90;;;;;;5006163;28;20483;-75
2022/06/17 06:45:10;;;;;;;12.85;9.43;;;17.80;99.90;;;;;;5010092;28;20445;-76
2022/06/17 06:47:35;;;;;;;10.15;9.07;;;17.80;99.90;;;;;;5007827;28;20420;-76
2022/06/17 06:50:01;;;;;;;12.67;9.90;;;17.80;99.90;;;;;;4993190;28;20915;-75
2022/06/17 06:52:26;;;;;;;10.93;9.33;;;17.90;99.90;;;;;;5007942;28;20413;-75
2022/06/17 06:54:52;;;;;;;13.23;9.70;;;17.90;99.90;;;;;;5011467;28;20405;-76
2022/06/17 06:57:19;;;;;;;12.00;10.00;;;17.90;99.90;;;;;;5009045;28;20443;-75
2022/06/17 06:59:45;;;;;;;13.32;9.93;;;18.00;99.90;;;;;;5013820;28;20437;-76
2022/06/17 07:02:10;;;;;;;17.08;11.23;;;18.10;99.90;;;;;;5011431;28;20852;-77
2022/06/17 07:04:36;;;;;;;17.70;10.90;;;18.10;99.90;;;;;;5032703;28;20869;-75
2022/06/17 07:07:02;;;;;;;23.35;12.70;;;18.20;99.90;;;;;;5111155;28;20807;-76
2022/06/17 07:09:28;;;;;;;17.67;11.27;;;18.30;99.90;;;;;;5053204;27;20381;-75
2022/06/17 07:11:53;;;;;;;12.70;9.93;;;18.40;99.90;;;;;;5055664;28;20996;-76
2022/06/17 07:14:19;;;;;;;10.90;9.60;;;18.50;99.90;;;;;;5007274;28;20438;-76
2022/06/17 07:16:45;;;;;;;12.43;9.35;;;18.60;99.90;;;;;;5007887;28;20455;-76
2022/06/17 07:19:16;;;;;;;10.83;9.13;;;18.60;99.90;;;;;;5010069;28;20423;-75
2022/06/17 07:21:42;;;;;;;13.13;9.60;;;18.70;99.90;;;;;;5068786;28;20416;-76
2022/06/17 07:24:07;;;;;;;11.15;9.90;;;18.80;99.90;;;;;;5020597;28;20412;-76
2022/06/17 07:26:33;;;;;;;11.50;10.30;;;18.90;99.90;;;;;;5010592;28;20446;-76
2022/06/17 07:28:59;;;;;;;12.88;10.18;;;18.90;99.90;;;;;;5014411;28;20413;-75
2022/06/17 07:31:25;;;;;;;11.70;9.75;;;18.90;99.90;;;;;;5012356;28;20898;-75
2022/06/17 07:33:51;;;;;;;12.23;10.35;;;18.90;99.90;;;;;;5017199;28;20408;-76
2022/06/17 07:41:52;;;;;;;12.48;10.05;;;19.00;99.90;;;;;;5014682;28;20429;-75
2022/06/17 07:44:19;;;;;;;12.05;10.13;;;19.10;99.90;;;;;;5009756;28;20436;-76
2022/06/17 07:46:44;;;;;;;12.68;9.88;;;19.10;99.90;;;;;;5017641;28;21126;-75
2022/06/17 07:49:11;;;;;;;12.87;9.97;;;19.20;99.90;;;;;;5013656;28;20445;-76
2022/06/17 07:51:36;;;;;;;12.37;9.63;;;19.20;99.90;;;;;;5014087;28;20405;-76
2022/06/17 07:54:02;;;;;;;12.85;9.63;;;19.30;99.90;;;;;;5012826;28;20905;-76
2022/06/17 07:56:28;;;;;;;11.97;9.47;;;19.40;99.90;;;;;;5017093;28;20401;-75
2022/06/17 07:58:54;;;;;;;10.98;9.43;;;19.50;99.90;;;;;;5012643;28;20421;-76
2022/06/17 08:01:19;;;;;;;11.37;9.20;;;19.60;99.90;;;;;;5017907;28;20411;-76
2022/06/17 08:03:45;;;;;;;11.60;9.00;;;19.70;99.90;;;;;;5013096;28;20956;-76
2022/06/17 08:06:13;;;;;;;12.77;8.55;;;19.90;99.90;;;;;;5095218;28;20048;-75
2022/06/17 08:08:39;;;;;;;9.45;7.68;;;20.10;99.90;;;;;;5108956;28;20497;-75
2022/06/17 08:11:05;;;;;;;11.90;8.83;;;20.20;99.90;;;;;;5087331;28;20408;-76
2022/06/17 08:13:31;;;;;;;9.23;6.55;;;20.40;99.90;;;;;;5108568;28;20497;-76
2022/06/17 08:15:59;;;;;;;8.82;6.65;;;20.50;99.90;;;;;;5106121;27;20133;-75
2022/06/17 08:18:24;;;;;;;11.52;6.47;;;20.70;99.90;;;;;;5109784;28;20040;-75
2022/06/17 08:20:50;;;;;;;11.40;6.45;;;20.90;99.90;;;;;;5109630;28;20042;-75
2022/06/17 08:23:17;;;;;;;9.23;6.20;;;21.10;99.90;;;;;;5052030;28;20886;-76
2022/06/17 08:25:42;;;;;;;7.72;5.82;;;21.30;99.90;;;;;;5075232;28;20124;-76
2022/06/17 08:28:09;;;;;;;9.55;6.07;;;21.40;99.90;;;;;;5064365;28;20130;-75
2022/06/17 08:30:40;;;;;;;8.13;5.97;;;21.50;99.90;;;;;;5089840;28;20135;-76
2022/06/17 08:33:06;;;;;;;6.28;5.15;;;21.70;99.90;;;;;;5110162;28;20046;-76
2022/06/17 08:35:34;;;;;;;9.63;5.80;;;21.80;99.90;;;;;;5090196;28;20126;-76
2022/06/17 08:38:07;;;;;;;8.88;5.82;;;22.00;99.90;;;;;;5109567;28;20071;-76
2022/06/17 08:40:48;;;;;;;7.53;5.40;;;22.20;99.90;;;;;;5089311;28;20925;-76
2022/06/17 08:43:33;;;;;;;;;;;22.30;99.40;;;;;;5109528;28;20569;-76
2022/06/17 08:46:03;;;;;;;;;;;22.40;99.20;;;;;;5053799;28;19933;-76
2022/06/17 08:48:38;;;;;;;6.40;4.40;;;22.50;98.20;;;;;;5009827;28;20398;-76
2022/06/17 08:51:13;;;;;;;6.40;4.80;;;22.60;99.20;;;;;;5006824;28;20428;-76
2022/06/17 08:53:48;;;;;;;7.87;5.30;;;22.80;99.30;;;;;;4995545;28;20774;-76
2022/06/17 08:57:04;;;;;;;6.93;4.47;;;22.90;97.30;;;;;;5009773;28;20399;-75
2022/06/17 08:59:36;;;;;;;6.45;4.57;;;23.10;97.50;;;;;;5003677;28;20502;-76
2022/06/17 09:02:07;;;;;;;9.15;5.25;;;23.20;97.90;;;;;;5011533;28;20076;-76
2022/06/17 09:04:47;;;;;;;6.15;3.85;;;23.30;96.80;;;;;;5010436;28;20042;-75
2022/06/17 09:07:30;;;;;;;6.95;4.25;;;23.40;96.50;;;;;;5005408;28;20042;-76
2022/06/17 09:10:05;;;;;;;7.38;4.40;;;23.50;98.10;;;;;;4994579;28;20508;-76
2022/06/17 09:12:57;;;;;;;7.22;4.03;;;23.50;96.80;;;;;;4988799;28;20526;-76
2022/06/17 09:15:36;;;;;;;7.95;4.07;;;23.50;96.30;;;;;;5006802;28;20443;-76
2022/06/17 09:18:29;;;;;;;7.15;4.22;;;23.40;95.90;;;;;;4994681;28;20759;-76
2022/06/17 09:21:12;;;;;;;9.50;4.60;;;23.30;95.80;;;;;;5005649;28;20482;-76
2022/06/17 09:23:40;;;;;;;6.03;3.78;;;23.20;95.80;;;;;;5006662;28;20405;-76
2022/06/17 09:26:25;;;;;;;5.97;3.95;;;23.10;96.00;;;;;;5025976;28;20929;-76
2022/06/17 09:28:58;;;;;;;5.97;3.40;;;23.10;96.40;;;;;;5023133;28;20767;-76
2022/06/17 09:31:47;;;;;;;5.65;3.88;;;23.00;96.70;;;;;;5007978;28;20409;-75
2022/06/17 09:34:34;;;;;;;7.00;4.10;;;23.00;96.90;;;;;;4997169;28;20421;-76
2022/06/17 09:37:15;;;;;;;6.03;4.00;;;23.10;96.70;;;;;;5009459;28;20413;-76
2022/06/17 09:40:06;;;;;;;5.03;3.50;;;23.10;96.80;;;;;;5005831;28;20436;-76
2022/06/17 09:42:43;;;;;;;7.63;3.92;;;23.10;96.20;;;;;;5001776;28;20455;-76
2022/06/17 09:45:28;;;;;;;7.43;4.32;;;23.20;96.70;;;;;;5006010;28;20405;-76
2022/06/17 09:48:12;;;;;;;7.32;4.00;;;23.30;96.50;;;;;;5009051;28;20417;-76
2022/06/17 09:50:46;;;;;;;5.95;3.58;;;23.30;96.30;;;;;;5105133;28;20473;-76
2022/06/17 09:53:33;;;;;;;6.90;3.75;;;23.50;96.60;;;;;;5104619;28;20427;-76
2022/06/17 09:56:25;;;;;;;6.03;3.40;;;23.80;96.80;;;;;;5105641;28;20448;-76
2022/06/17 09:59:21;;;;;;;6.87;3.40;;;24.30;96.10;;;;;;5058607;28;20415;-76
2022/06/17 10:01:48;;;;;;;6.43;3.60;;;24.80;94.70;;;;;;5104935;28;20437;-76
2022/06/17 10:04:15;;;;;;;5.55;3.53;;;25.00;93.30;;;;;;5032110;28;20413;-76
2022/06/17 10:06:44;;;;;;;5.75;3.70;;;25.00;92.90;;;;;;5005068;28;20454;-77
2022/06/17 10:09:47;;;;;;;5.63;3.22;;;24.90;92.60;;;;;;5015807;28;20416;-76
2022/06/17 10:12:27;;;;;;;6.15;3.47;;;24.70;93.20;;;;;;5072236;28;20433;-76
2022/06/17 10:19:13;;;;;;;5.25;3.42;;;24.30;92.40;;;;;;4991725;28;20828;-76
2022/06/17 10:21:48;;;;;;;6.47;3.50;;;24.10;92.90;;;;;;5011325;28;20433;-75
2022/06/17 10:24:32;;;;;;;6.38;3.35;;;24.00;92.50;;;;;;4991179;28;20752;-76
2022/06/17 10:27:12;;;;;;;6.67;3.30;;;23.90;93.60;;;;;;5009656;28;20483;-76
2022/06/17 10:30:03;;;;;;;6.50;3.27;;;23.90;94.00;;;;;;5008625;28;20420;-76
2022/06/17 10:32:32;;;;;;;6.38;3.30;;;23.80;93.00;;;;;;5048015;28;20975;-76
2022/06/17 10:35:01;;;;;;;6.70;3.30;;;23.80;93.80;;;;;;5025483;28;20483;-76
2022/06/17 10:37:29;;;;;;;6.43;3.40;;;23.70;93.90;;;;;;4991660;28;20495;-76
2022/06/17 10:39:56;;;;;;;7.15;3.33;;;23.70;93.50;;;;;;5009214;28;20957;-76
2022/06/17 10:42:24;;;;;;;5.60;3.45;;;23.70;94.10;;;;;;5007934;28;20433;-76
2022/06/17 10:44:52;;;;;;;6.55;3.60;;;23.60;94.50;;;;;;5008358;28;20417;-76
2022/06/17 10:47:40;;;;;;;7.10;3.80;;;23.70;94.10;;;;;;5010807;28;20805;-76
2022/06/17 10:50:13;;;;;;;6.85;3.97;;;23.60;94.10;;;;;;5010326;28;20424;-76
2022/06/17 10:52:43;;;;;;;5.05;3.30;;;23.60;93.80;;;;;;5111302;28;20510;-75
2022/06/17 10:55:17;;;;;;;7.70;4.33;;;23.50;94.50;;;;;;5031718;28;20431;-76
2022/06/17 10:58:07;;;;;;;5.95;3.58;;;23.50;93.80;;;;;;5008581;28;20428;-76
2022/06/17 11:00:40;;;;;;;7.28;3.80;;;23.50;94.90;;;;;;5109576;28;20396;-75
2022/06/17 11:03:21;;;;;;;7.57;4.03;;;23.70;94.60;;;;;;5107594;28;20420;-76
2022/06/17 11:06:05;;;;;;;6.07;3.50;;;23.80;94.60;;;;;;5108839;28;20534;-76
2022/06/17 11:08:53;;;;;;;7.40;3.83;;;24.10;95.20;;;;;;5040675;27;20404;-76
2022/06/17 11:14:29;;;;;;;7.18;4.00;;;24.80;94.20;;;;;;5008833;28;21044;-76
2022/06/17 11:16:55;;;;;;;6.60;4.45;;;25.30;94.50;;;;;;5007649;28;20435;-76
2022/06/17 11:19:24;;;;;;;7.80;5.00;;;25.70;93.20;;;;;;5075688;28;20396;-77
2022/06/17 11:21:59;;;;;;;8.38;4.70;;;26.00;92.10;;;;;;5007372;28;20443;-76
2022/06/17 11:24:34;;;;;;;7.40;4.40;;;26.00;92.10;;;;;;5084036;28;20833;-76
2022/06/17 11:27:07;;;;;;;7.03;4.35;;;26.00;91.50;;;;;;5108890;28;20439;-76
2022/06/17 11:29:50;;;;;;;6.70;3.83;;;26.00;90.60;;;;;;5041238;28;20816;-76
2022/06/17 11:32:31;;;;;;;5.60;3.33;;;25.90;89.10;;;;;;5109780;28;20403;-76
2022/06/17 11:34:59;;;;;;;10.90;3.85;;;26.00;90.00;;;;;;5056330;27;20408;-76
2022/06/17 11:37:32;;;;;;;5.75;3.47;;;26.20;89.50;;;;;;5108505;28;20454;-76
2022/06/17 11:40:12;;;;;;;5.28;3.15;;;26.40;88.80;;;;;;5107067;28;20412;-76
2022/06/17 11:42:58;;;;;;;6.65;3.40;;;26.60;88.00;;;;;;5105327;28;20420;-77
2022/06/17 11:45:29;;;;;;;4.25;2.97;;;26.80;86.20;;;;;;5103584;28;20851;-76
2022/06/17 11:48:09;;;;;;;7.07;3.15;;;27.00;86.60;;;;;;5106121;28;20457;-76
2022/06/17 11:50:37;;;;;;;5.95;3.45;;;27.10;85.50;;;;;;5101908;27;20395;-77
2022/06/17 11:53:16;;;;;;;4.50;2.95;;;27.10;87.10;;;;;;5107379;28;20472;-76
2022/06/17 11:55:47;;;;;;;6.85;3.20;;;27.00;84.80;;;;;;5102536;28;20471;-76
2022/06/17 11:58:17;;;;;;;5.60;3.40;;;27.00;85.30;;;;;;5104783;28;20432;-76
2022/06/17 12:00:46;;;;;;;7.65;3.10;;;27.20;81.50;;;;;;5069645;28;20887;-76
2022/06/17 12:03:15;;;;;;;5.18;2.97;;;27.60;83.20;;;;;;5007336;28;20472;-76
2022/06/17 12:05:41;;;;;;;5.00;3.03;;;27.60;78.90;;;;;;5049761;28;20400;-76
2022/06/17 12:08:16;;;;;;;5.32;3.30;;;27.60;79.70;;;;;;5098255;28;20400;-76
2022/06/17 12:10:49;;;;;;;5.80;3.00;;;27.30;79.30;;;;;;5007687;28;20413;-76
2022/06/17 12:13:37;;;;;;;6.43;3.20;;;27.30;78.20;;;;;;5025557;28;20487;-76
2022/06/17 12:16:30;;;;;;;5.00;2.90;;;27.50;79.50;;;;;;5052168;28;20789;-77
2022/06/17 12:18:58;;;;;;;5.43;3.33;;;27.80;78.30;;;;;;5055061;28;20427;-77
2022/06/17 12:21:30;;;;;;;4.70;2.80;;;28.30;78.20;;;;;;5096422;28;20458;-77
2022/06/17 12:24:30;;;;;;;9.23;3.40;;;28.60;77.20;;;;;;5107320;28;20868;-76
2022/06/17 12:27:15;;;;;;;7.40;3.10;;;28.70;74.60;;;;;;5107439;28;21039;-77
2022/06/17 12:29:49;;;;;;;6.38;2.83;;;28.90;72.80;;;;;;5090241;28;20488;-77
2022/06/17 12:32:24;;;;;;;5.95;2.80;;;28.90;73.30;;;;;;5107817;28;20404;-76
2022/06/17 12:35:13;;;;;;;5.32;2.90;;;28.90;73.20;;;;;;5033214;28;20794;-76
2022/06/17 12:37:44;;;;;;;5.43;3.08;;;29.00;71.40;;;;;;5103457;28;20434;-76
2022/06/17 12:40:22;;;;;;;5.77;3.60;;;29.30;73.50;;;;;;5105612;28;20412;-76
2022/06/17 12:42:48;;;;;;;6.53;3.30;;;29.50;69.60;;;;;;5101600;28;20428;-77
2022/06/17 12:45:25;;;;;;;6.77;3.73;;;29.60;69.70;;;;;;5100596;28;20412;-77
2022/06/17 12:48:16;;;;;;;5.72;3.40;;;29.70;69.20;;;;;;5045039;28;20413;-76
2022/06/17 12:53:40;;;;;;;6.32;3.65;;;29.90;67.70;;;;;;5099464;28;20408;-76
2022/06/17 12:56:36;;;;;;;5.15;3.55;;;30.00;70.20;;;;;;5064128;28;20898;-77
2022/06/17 12:59:18;;;;;;;6.87;3.90;;;29.90;64.70;;;;;;5106376;28;20823;-76
2022/06/17 13:02:12;;;;;;;5.75;4.10;;;29.80;65.30;;;;;;5105264;28;21453;-76
2022/06/17 13:05:03;;;;;;;5.93;3.63;;;29.60;67.20;;;;;;5105151;28;20412;-76
2022/06/17 13:07:40;;;;;;;5.78;3.42;;;29.40;64.90;;;;;;5106763;28;20499;-76
2022/06/17 13:10:40;;;;;;;6.32;3.60;;;29.20;66.00;;;;;;5103650;28;20400;-76
2022/06/17 13:13:27;;;;;;;4.47;3.13;;;29.00;66.80;;;;;;5017660;28;20421;-76
2022/06/17 13:16:02;;;;;;;6.25;3.67;;;28.70;67.30;;;;;;5107085;28;20404;-76
2022/06/17 13:18:31;;;;;;;6.13;3.50;;;28.40;67.60;;;;;;5106136;28;20408;-76
2022/06/17 13:21:04;;;;;;;5.38;3.50;;;28.30;68.50;;;;;;5106441;28;20396;-76
2022/06/17 13:23:40;;;;;;;5.53;3.50;;;28.10;68.30;;;;;;5105899;28;20421;-76
2022/06/17 13:26:18;;;;;;;4.53;2.90;;;28.00;68.00;;;;;;5100907;28;20417;-76
2022/06/17 13:28:56;;;;;;;6.18;2.95;;;27.70;68.70;;;;;;5102083;28;20423;-76